Las Americas International Airport

Airport
ICAO code: 
MDSD
IATA Code: 
SDQ
Summary
ICAO Region: 
CARSAM
Territory: 
Location: 
Punta Caucedo, Dominican Republic
Serving: 
Santo Domingo
Elevation: 
59 ft
Coordinates: 
Aerial View: 
18° 25' 46.819" N, 69° 40' 11.382" W
Airport WX: 
Tropical Revolving Storm
Metar
Observation
MDSD 271400Z 12005KT 050V150 9999 FEW020 27/21 Q1016
Station
Las Americas
Date/Time
2021-11-27 14:00:00
Wind direction
120°
Wind speed
05 kts
Lowest cloud amount
few clouds
Temperature
27°C
Dew point
21°C
Humidity
69%
QNH
1016 hPa
Weather condition
n/a

Las Américas International Airport is an international airport located in Punta Caucedo, near Santo Domingo and Boca Chica in the Dominican Republic.

Climatology

Tropical Monsoon climate (Köppen climate classification Am) - monthly mean temperatures above 18°C in every month of the year and features wet and dry seasons. A tropical monsoon climate typically features less pronounced dry seasons than a tropical savanna climate and see less variance in temperatures during the course of the year. The driest month nearly always occurs at or soon after the "winter" solstice.

Runways

Designator Length Width Surface Rops
17/35 3353 61 ASP Yes/Yes
Airport map: 
Aerial View: 

SKYbrary Partners:

Safety knowledge contributed by: